Time;durP1;ratioP1;P1;durP2;ratioP2;P2;SDS_P1;SDS_P2;PMS_P1;PMS_P2;Temp;Humidity;BMP_temperature;BMP_pressure;BME280_temperature;BME280_humidity;BME280_pressure;Samples;Min_cycle;Max_cycle;Signal;HPM_P1;HPM_P2
2022/07/01 00:01:45;;;;;;;16.77;12.82;;;;;;;15.42;100.00;101313.63;5053381;28;20053;-54
2022/07/01 00:04:14;;;;;;;20.00;15.18;;;;;;;15.41;100.00;101317.25;5053354;28;20120;-49
2022/07/01 00:06:42;;;;;;;15.38;13.10;;;;;;;15.37;100.00;101322.78;5053350;28;20106;-49
2022/07/01 00:09:10;;;;;;;17.23;14.18;;;;;;;15.32;100.00;101324.94;5049926;28;20488;-52
2022/07/01 00:11:38;;;;;;;16.35;14.15;;;;;;;15.46;100.00;101325.66;5049024;28;20150;-51
2022/07/01 00:14:06;;;;;;;16.88;14.07;;;;;;;15.45;100.00;101316.88;5053287;28;20480;-54
2022/07/01 00:16:36;;;;;;;17.00;14.65;;;;;;;15.44;100.00;101319.66;5053125;28;20516;-54
2022/07/01 00:19:06;;;;;;;16.48;14.70;;;;;;;15.36;100.00;101317.59;5053249;28;20064;-50
2022/07/01 00:21:34;;;;;;;17.38;14.32;;;;;;;15.44;100.00;101319.66;5052746;28;20068;-53
2022/07/01 00:24:03;;;;;;;16.05;14.35;;;;;;;15.47;100.00;101311.47;5052688;28;20124;-51
2022/07/01 00:26:31;;;;;;;16.35;14.25;;;;;;;15.45;100.00;101318.69;5051940;28;20607;-46
2022/07/01 00:28:59;;;;;;;16.55;14.60;;;;;;;15.44;100.00;101325.78;5049056;28;20049;-47
2022/07/01 00:31:27;;;;;;;16.75;14.52;;;;;;;15.32;100.00;101316.97;5050592;28;20059;-52
2022/07/01 00:33:55;;;;;;;16.67;14.88;;;;;;;15.23;100.00;101314.22;5050833;28;20573;-53
2022/07/01 00:36:25;;;;;;;17.88;15.10;;;;;;;15.21;100.00;101322.28;5052291;28;20400;-51
2022/07/01 00:38:59;;;;;;;17.73;14.50;;;;;;;15.07;100.00;101330.47;5051198;28;20045;-45
2022/07/01 00:41:27;;;;;;;17.90;15.23;;;;;;;15.16;100.00;101330.59;5051180;28;20451;-49
2022/07/01 00:43:55;;;;;;;17.50;15.57;;;;;;;15.23;100.00;101327.44;5048869;28;20617;-57
2022/07/01 00:46:24;;;;;;;17.33;14.95;;;;;;;15.17;100.00;101326.13;5051518;28;20049;-50
2022/07/01 00:48:56;;;;;;;17.05;15.20;;;;;;;15.14;100.00;101331.66;5048641;28;20052;-53
2022/07/01 00:51:25;;;;;;;16.98;15.18;;;;;;;15.19;100.00;101318.91;5049728;28;20051;-53
2022/07/01 00:53:54;;;;;;;19.25;15.63;;;;;;;15.09;100.00;101318.75;5052552;28;20446;-54
2022/07/01 00:56:23;;;;;;;17.80;15.77;;;;;;;15.12;100.00;101333.56;5050508;28;20045;-49
2022/07/01 00:58:51;;;;;;;19.85;16.00;;;;;;;15.12;100.00;101328.28;5048568;28;20045;-48
2022/07/01 01:01:20;;;;;;;21.85;16.20;;;;;;;15.06;100.00;101324.31;5051076;28;20048;-50
2022/07/01 01:03:49;;;;;;;22.23;18.38;;;;;;;15.06;100.00;101328.75;5051231;28;20095;-44
2022/07/01 01:06:18;;;;;;;25.25;18.48;;;;;;;14.93;100.00;101335.00;5048153;28;20049;-53
2022/07/01 01:08:48;;;;;;;27.58;17.98;;;;;;;14.97;100.00;101331.16;5050966;28;20538;-49
2022/07/01 01:11:17;;;;;;;25.50;19.40;;;;;;;14.99;100.00;101334.50;5052139;28;20431;-50
2022/07/01 01:13:45;;;;;;;26.80;20.58;;;;;;;15.05;100.00;101341.16;5049667;28;20098;-48
2022/07/01 01:16:20;;;;;;;25.55;19.67;;;;;;;15.03;100.00;101335.97;5048738;28;20052;-52
2022/07/01 01:18:49;;;;;;;25.67;20.05;;;;;;;14.93;100.00;101344.72;5052199;28;20040;-44
2022/07/01 01:21:19;;;;;;;31.27;22.23;;;;;;;14.91;100.00;101349.31;5050104;28;20455;-49
2022/07/01 01:23:47;;;;;;;28.02;21.08;;;;;;;14.95;100.00;101354.25;5048627;28;20083;-51
2022/07/01 01:26:21;;;;;;;28.73;22.83;;;;;;;15.01;100.00;101360.88;5050667;28;20053;-50
2022/07/01 01:28:49;;;;;;;30.83;23.60;;;;;;;14.96;100.00;101371.84;5051239;28;20052;-53
2022/07/01 01:31:28;;;;;;;30.23;22.70;;;;;;;14.97;100.00;101376.19;5048634;28;20739;-46
2022/07/01 01:33:56;;;;;;;34.00;25.10;;;;;;;14.85;100.00;101385.03;5050016;28;20103;-54
2022/07/01 01:36:26;;;;;;;33.47;25.20;;;;;;;14.93;100.00;101387.09;5047566;28;20076;-53
2022/07/01 01:38:54;;;;;;;35.00;27.23;;;;;;;14.86;100.00;101382.28;5048086;28;20524;-47
2022/07/01 01:41:22;;;;;;;38.95;27.33;;;;;;;14.88;100.00;101390.94;5051557;28;20385;-52
2022/07/01 01:43:50;;;;;;;38.08;28.30;;;;;;;14.86;100.00;101384.06;5047998;28;20110;-55
2022/07/01 01:46:18;;;;;;;37.05;28.10;;;;;;;14.83;100.00;101374.56;5049480;28;20458;-53
2022/07/01 01:48:46;;;;;;;38.65;27.83;;;;;;;14.85;100.00;101370.00;5051575;28;20519;-46
2022/07/01 01:51:14;;;;;;;39.33;28.15;;;;;;;14.88;100.00;101374.22;5051661;28;20132;-54
2022/07/01 01:53:44;;;;;;;34.08;26.52;;;;;;;14.80;100.00;101373.94;5051791;28;20045;-46
2022/07/01 01:56:12;;;;;;;38.50;28.10;;;;;;;14.81;100.00;101371.19;5046238;28;20056;-48
2022/07/01 01:58:42;;;;;;;38.53;27.80;;;;;;;14.79;100.00;101372.25;5049508;28;20071;-49
2022/07/01 02:01:10;;;;;;;39.03;28.98;;;;;;;14.82;100.00;101372.88;5051428;28;20045;-47
2022/07/01 02:03:39;;;;;;;40.13;28.30;;;;;;;14.80;100.00;101381.88;5051688;28;20045;-48
2022/07/01 02:06:09;;;;;;;37.97;27.77;;;;;;;14.72;100.00;101389.56;5051562;28;20135;-47
2022/07/01 02:08:38;;;;;;;44.08;29.05;;;;;;;14.72;100.00;101390.41;5051087;28;20053;-52
2022/07/01 02:11:08;;;;;;;40.15;29.98;;;;;;;14.70;100.00;101389.69;5051407;28;20103;-45
2022/07/01 02:13:36;;;;;;;42.33;30.42;;;;;;;14.64;100.00;101390.97;5055563;28;20052;-51
2022/07/01 02:16:05;;;;;;;41.08;29.52;;;;;;;14.66;100.00;101380.28;5055541;28;20073;-51
2022/07/01 02:18:33;;;;;;;43.30;32.58;;;;;;;14.64;100.00;101371.59;5054015;28;20041;-47
2022/07/01 02:21:01;;;;;;;41.15;31.48;;;;;;;14.65;100.00;101376.75;5054477;28;20048;-44
2022/07/01 02:23:37;;;;;;;42.05;30.75;;;;;;;14.63;100.00;101381.34;5052095;28;20049;-45
2022/07/01 02:26:06;;;;;;;43.78;31.05;;;;;;;14.75;100.00;101389.31;5053497;28;20053;-49
2022/07/01 02:28:34;;;;;;;40.90;31.10;;;;;;;14.74;100.00;101387.63;5055178;28;20080;-47
2022/07/01 02:31:03;;;;;;;39.72;30.35;;;;;;;14.65;100.00;101392.66;5055139;28;20492;-50
2022/07/01 02:33:32;;;;;;;41.13;30.20;;;;;;;14.66;100.00;101406.75;5054987;28;20072;-52
2022/07/01 02:36:00;;;;;;;42.15;31.08;;;;;;;14.64;100.00;101411.28;5054925;28;20048;-48
2022/07/01 02:38:28;;;;;;;38.50;30.30;;;;;;;14.64;100.00;101417.44;5054777;28;20426;-46
2022/07/01 02:40:56;;;;;;;41.03;29.27;;;;;;;14.62;100.00;101418.47;5054626;28;20083;-54
2022/07/01 02:43:25;;;;;;;38.63;28.98;;;;;;;14.59;100.00;101411.63;5054854;28;20049;-53
2022/07/01 02:45:53;;;;;;;35.95;28.23;;;;;;;14.65;100.00;101413.81;5051114;28;20110;-53
2022/07/01 02:48:21;;;;;;;38.30;28.15;;;;;;;14.68;100.00;101410.09;5051339;28;20060;-51
2022/07/01 02:50:49;;;;;;;36.72;27.80;;;;;;;14.65;100.00;101416.47;5054882;28;20083;-52
2022/07/01 02:53:17;;;;;;;34.85;26.20;;;;;;;14.62;100.00;101411.38;5054577;28;20055;-51
2022/07/01 02:55:45;;;;;;;35.45;27.95;;;;;;;14.46;100.00;101402.88;5050538;28;20045;-47
2022/07/01 02:58:14;;;;;;;36.28;27.35;;;;;;;14.55;100.00;101404.84;5051192;28;20103;-45
2022/07/01 03:00:44;;;;;;;34.70;26.88;;;;;;;14.51;100.00;101400.75;5053682;28;20488;-53
2022/07/01 03:03:12;;;;;;;35.85;27.13;;;;;;;14.58;100.00;101403.78;5050119;28;20060;-54
2022/07/01 03:05:40;;;;;;;35.40;26.80;;;;;;;14.67;100.00;101413.72;5053141;28;20049;-48
2022/07/01 03:08:08;;;;;;;34.78;27.35;;;;;;;14.67;100.00;101414.56;5054534;28;20041;-50
2022/07/01 03:10:36;;;;;;;35.10;25.38;;;;;;;14.54;100.00;101417.22;5049600;28;20061;-51
2022/07/01 03:13:05;;;;;;;35.03;26.55;;;;;;;14.58;100.00;101423.16;5051191;28;20075;-45
2022/07/01 03:15:33;;;;;;;37.55;26.38;;;;;;;14.53;100.00;101409.41;5054362;28;20049;-47
2022/07/01 03:18:02;;;;;;;36.33;27.08;;;;;;;14.54;100.00;101419.03;5054269;28;20068;-51
2022/07/01 03:20:30;;;;;;;32.63;25.27;;;;;;;14.53;100.00;101419.97;5054251;28;20492;-52
2022/07/01 03:22:58;;;;;;;33.30;25.92;;;;;;;14.42;100.00;101430.50;5050851;28;20085;-53
2022/07/01 03:25:26;;;;;;;33.42;25.48;;;;;;;14.27;100.00;101430.66;5049695;28;20049;-46
2022/07/01 03:27:54;;;;;;;35.78;25.52;;;;;;;14.35;100.00;101436.22;5054005;28;20528;-45
2022/07/01 03:30:22;;;;;;;34.25;25.98;;;;;;;14.39;100.00;101433.38;5054075;28;20068;-47
2022/07/01 03:32:50;;;;;;;34.35;26.50;;;;;;;14.41;100.00;101440.25;5054028;28;20052;-46
2022/07/01 03:35:39;;;;;;;37.92;26.58;;;;;;;14.35;100.00;101440.69;5050887;28;20065;-54
2022/07/01 03:38:08;;;;;;;35.55;25.73;;;;;;;14.39;100.00;101441.31;5050719;28;20775;-48
2022/07/01 03:40:36;;;;;;;33.40;24.17;;;;;;;14.30;100.00;101450.75;5054039;28;20053;-53
2022/07/01 03:43:04;;;;;;;34.92;24.20;;;;;;;14.35;100.00;101438.03;5052172;28;20037;-53
2022/07/01 03:45:33;;;;;;;33.30;25.15;;;;;;;14.39;100.00;101436.88;5054289;28;20057;-53
2022/07/01 03:48:02;;;;;;;37.38;25.60;;;;;;;14.37;100.00;101433.50;5053604;28;20111;-48
2022/07/01 03:50:31;;;;;;;34.67;24.65;;;;;;;14.35;100.00;101436.22;5050572;28;20041;-55
2022/07/01 03:55:44;;;;;;;34.80;25.73;;;;;;;14.24;100.00;101449.38;5052458;28;20083;-54
2022/07/01 03:58:13;;;;;;;33.70;25.15;;;;;;;14.08;100.00;101454.06;5053354;28;20071;-55
2022/07/01 04:00:41;;;;;;;35.00;25.95;;;;;;;14.25;100.00;101444.94;5053556;28;20055;-45
2022/07/01 04:03:09;;;;;;;36.03;24.75;;;;;;;14.20;100.00;101459.34;5053267;28;20553;-51
2022/07/01 04:05:39;;;;;;;33.33;23.98;;;;;;;14.22;100.00;101461.03;5053292;28;20479;-46
2022/07/01 04:08:10;;;;;;;36.58;25.45;;;;;;;14.13;100.00;101463.38;5051726;28;20866;-47
2022/07/01 04:10:40;;;;;;;36.42;24.65;;;;;;;14.12;100.00;101472.25;5048737;28;20080;-51
2022/07/01 04:13:08;;;;;;;35.78;24.60;;;;;;;14.16;100.00;101483.47;5052125;28;20049;-47
2022/07/01 04:15:56;;;;;;;33.10;23.77;;;;;;;14.16;100.00;101483.47;5051806;28;20080;-50
2022/07/01 04:18:24;;;;;;;36.72;24.05;;;;;;;14.25;100.00;101485.47;5048375;28;20503;-55
2022/07/01 04:23:40;;;;;;;36.17;23.48;;;;;;;14.31;100.00;101487.69;5053095;28;20041;-49
2022/07/01 04:26:08;;;;;;;35.20;22.70;;;;;;;14.39;100.00;101487.13;5052896;28;20049;-46
2022/07/01 04:28:57;;;;;;;30.50;21.65;;;;;;;14.28;100.00;101487.91;5052618;28;20095;-50
2022/07/01 04:31:25;;;;;;;35.17;22.80;;;;;;;14.21;100.00;101484.00;5051947;28;20110;-53
2022/07/01 04:33:53;;;;;;;29.73;21.33;;;;;;;14.23;100.00;101484.72;5050710;28;20083;-50
2022/07/01 04:36:22;;;;;;;32.13;21.58;;;;;;;14.26;100.00;101487.19;5052106;28;20053;-52
2022/07/01 04:38:50;;;;;;;33.13;21.70;;;;;;;14.31;100.00;101486.84;5052431;28;20379;-46
2022/07/01 04:44:05;;;;;;;32.28;21.92;;;;;;;14.33;100.00;101484.94;5052053;28;20396;-52
2022/07/01 04:46:33;;;;;;;35.00;22.65;;;;;;;14.40;100.00;101482.69;5052470;28;20041;-54
2022/07/01 04:49:01;;;;;;;31.38;22.58;;;;;;;14.42;100.00;101488.72;5052025;28;20049;-54
2022/07/01 04:51:30;;;;;;;34.53;21.85;;;;;;;14.38;100.00;101490.72;5051780;28;20045;-54
2022/07/01 04:53:59;;;;;;;33.05;21.80;;;;;;;14.45;100.00;101493.78;5051733;28;20055;-55
2022/07/01 04:56:28;;;;;;;32.13;21.20;;;;;;;14.50;100.00;101505.72;5051988;28;20488;-54
2022/07/01 04:58:57;;;;;;;35.35;22.92;;;;;;;14.35;100.00;101509.47;5049068;28;20051;-55
2022/07/01 05:01:25;;;;;;;31.38;21.45;;;;;;;14.41;100.00;101505.56;5048559;28;20051;-55
2022/07/01 05:03:53;;;;;;;33.80;21.83;;;;;;;14.44;100.00;101503.53;5051966;28;20045;-54
2022/07/01 05:06:21;;;;;;;36.08;21.67;;;;;;;14.39;100.00;101508.31;5052122;28;20048;-49
2022/07/01 05:08:51;;;;;;;29.67;20.67;;;;;;;14.43;100.00;101499.19;5052134;28;20041;-54
2022/07/01 05:11:19;;;;;;;34.75;19.85;;;;;;;14.40;100.00;101501.19;5047892;28;20366;-54
2022/07/01 05:13:47;;;;;;;28.85;18.77;;;;;;;14.52;100.00;101500.34;5047935;28;20086;-50
2022/07/01 05:16:15;;;;;;;28.15;19.38;;;;;;;14.52;100.00;101501.19;5052196;28;20102;-49
2022/07/01 05:24:16;;;;;;;30.58;20.50;;;;;;;14.68;100.00;101500.13;5051881;28;20041;-56
2022/07/01 05:26:44;;;;;;;29.67;18.77;;;;;;;14.60;100.00;101513.88;5051556;28;20124;-56
2022/07/01 05:29:12;;;;;;;29.83;17.95;;;;;;;14.61;100.00;101506.78;5048478;28;20045;-50
2022/07/01 05:31:40;;;;;;;28.65;19.27;;;;;;;14.64;100.00;101504.81;5050329;28;20439;-47
2022/07/01 05:34:09;;;;;;;27.30;18.77;;;;;;;14.66;100.00;101502.03;5051656;28;20041;-46
2022/07/01 05:36:37;;;;;;;28.25;18.65;;;;;;;14.60;100.00;101511.25;5051826;28;20044;-49
2022/07/01 05:39:05;;;;;;;27.15;17.75;;;;;;;14.63;100.00;101510.19;5050685;28;20128;-49
2022/07/01 05:41:36;;;;;;;30.90;20.15;;;;;;;14.68;100.00;101500.13;5047128;28;20447;-49
2022/07/01 05:44:04;;;;;;;27.88;19.15;;;;;;;14.69;100.00;101501.81;5052636;28;20060;-53
2022/07/01 05:46:33;;;;;;;28.00;17.98;;;;;;;14.72;100.00;101500.75;5055779;28;20076;-54
2022/07/01 05:49:01;;;;;;;29.73;18.90;;;;;;;14.81;100.00;101505.38;5055470;28;20045;-50
2022/07/01 05:51:29;;;;;;;26.23;17.33;;;;;;;14.77;100.00;101507.41;5055865;28;20091;-49
2022/07/01 05:53:57;;;;;;;25.58;18.10;;;;;;;14.82;100.00;101501.75;5055486;28;20047;-48
2022/07/01 05:56:26;;;;;;;27.05;17.90;;;;;;;14.83;100.00;101496.38;5054398;28;20479;-55
2022/07/01 05:58:58;;;;;;;25.70;17.08;;;;;;;14.96;100.00;101493.66;5053426;28;20103;-55
2022/07/01 06:01:26;;;;;;;28.63;18.40;;;;;;;14.98;100.00;101494.41;5052231;28;20052;-55
2022/07/01 06:03:54;;;;;;;23.45;16.95;;;;;;;14.96;100.00;101500.78;5054944;28;20606;-56
2022/07/01 06:06:22;;;;;;;26.40;16.52;;;;;;;14.89;100.00;101500.38;5055337;28;20044;-48
2022/07/01 06:08:50;;;;;;;26.70;16.95;;;;;;;14.94;100.00;101505.31;5055292;28;20052;-50
2022/07/01 06:11:19;;;;;;;24.58;16.13;;;;;;;14.94;100.00;101506.16;5055338;28;20068;-57
2022/07/01 06:13:46;;;;;;;23.88;15.60;;;;;;;15.09;100.00;101511.28;5053037;28;20083;-47
2022/07/01 06:16:16;;;;;;;25.85;15.70;;;;;;;15.08;100.00;101510.47;5052178;28;20053;-50
2022/07/01 06:18:44;;;;;;;23.95;15.55;;;;;;;15.08;100.00;101506.94;5055192;28;20053;-50
2022/07/01 06:21:12;;;;;;;24.73;16.58;;;;;;;15.20;100.00;101506.03;5050015;28;20045;-51
2022/07/01 06:23:40;;;;;;;24.80;16.55;;;;;;;15.13;100.00;101497.69;5053543;28;20045;-55
2022/07/01 06:26:08;;;;;;;24.23;16.25;;;;;;;15.12;100.00;101487.22;5055390;28;20068;-51
2022/07/01 06:28:36;;;;;;;23.55;16.38;;;;;;;15.24;100.00;101496.06;5052311;28;20132;-56
2022/07/01 06:31:04;;;;;;;23.90;16.40;;;;;;;15.25;100.00;101500.41;5051949;28;20159;-51
2022/07/01 06:33:34;;;;;;;25.25;16.75;;;;;;;15.30;100.00;101501.75;5054979;28;20451;-49
2022/07/01 06:36:02;;;;;;;25.50;16.83;;;;;;;15.42;100.00;101499.13;5054969;28;20041;-47
2022/07/01 06:38:31;;;;;;;27.38;17.17;;;;;;;15.44;100.00;101502.53;5055200;28;20045;-47
2022/07/01 06:43:45;;;;;;;24.92;17.02;;;;;;;15.46;100.00;101513.84;5054970;28;20111;-49
2022/07/01 06:46:13;;;;;;;27.23;16.88;;;;;;;15.44;100.00;101515.78;5054832;28;20076;-57
2022/07/01 06:48:42;;;;;;;27.73;18.15;;;;;;;15.37;100.00;101523.34;5054425;28;20065;-56
2022/07/01 06:51:10;;;;;;;27.30;17.42;;;;;;;15.39;100.00;101518.75;5051782;28;20072;-48
2022/07/01 06:53:39;;;;;;;24.50;16.38;;;;;;;15.45;100.00;101523.63;5050712;28;20048;-49
2022/07/01 06:56:07;;;;;;;28.30;17.15;;;;;;;15.42;100.00;101523.00;5054239;28;20049;-51
2022/07/01 06:58:35;;;;;;;27.63;16.80;;;;;;;15.49;100.00;101527.72;5053211;28;20149;-50
2022/07/01 07:01:03;;;;;;;27.60;16.88;;;;;;;15.29;100.00;101528.38;5053922;28;20048;-48
2022/07/01 07:03:32;;;;;;;26.17;17.02;;;;;;;15.36;100.00;101535.72;5054185;28;20122;-57
2022/07/01 07:06:02;;;;;;;27.55;16.35;;;;;;;15.48;100.00;101535.78;5050966;28;20392;-60
2022/07/01 07:08:32;;;;;;;24.38;14.77;;;;;;;15.44;100.00;101534.34;5051388;28;20056;-46
2022/07/01 07:11:02;;;;;;;27.52;17.65;;;;;;;15.52;100.00;101538.09;5054485;28;20060;-48
2022/07/01 07:13:31;;;;;;;23.23;15.88;;;;;;;15.72;100.00;101539.25;5054240;28;20044;-47
2022/07/01 07:15:59;;;;;;;27.00;16.45;;;;;;;15.81;100.00;101542.19;5054171;28;20118;-57
2022/07/01 07:18:27;;;;;;;25.90;15.07;;;;;;;16.00;100.00;101550.41;5054192;28;20476;-57
2022/07/01 07:20:55;;;;;;;25.85;16.10;;;;;;;15.91;100.00;101540.53;5054087;28;20049;-48
2022/07/01 07:23:28;;;;;;;26.38;15.65;;;;;;;16.13;100.00;101541.50;5054623;28;20476;-58
2022/07/01 07:25:57;;;;;;;23.17;15.20;;;;;;;16.31;100.00;101539.25;5054253;28;20094;-58
2022/07/01 07:28:25;;;;;;;25.10;15.27;;;;;;;16.53;100.00;101535.72;5054538;28;20044;-56
2022/07/01 07:30:53;;;;;;;24.38;15.77;;;;;;;16.79;100.00;101540.75;5051687;28;20128;-58
2022/07/01 07:33:21;;;;;;;24.13;15.73;;;;;;;16.96;100.00;101542.94;5050425;28;20049;-57
2022/07/01 07:35:49;;;;;;;22.70;15.77;;;;;;;17.12;100.00;101549.63;5053802;28;20053;-56
2022/07/01 07:38:17;;;;;;;23.27;15.40;;;;;;;17.30;100.00;101541.97;5052430;28;20395;-58
2022/07/01 07:40:47;;;;;;;22.48;15.85;;;;;;;17.55;98.75;101546.09;5049079;28;20037;-45
2022/07/01 07:43:15;;;;;;;23.80;15.18;;;;;;;17.66;95.33;101543.38;5052502;28;20484;-48
2022/07/01 07:45:43;;;;;;;23.02;15.00;;;;;;;17.64;94.41;101549.78;5054103;28;20739;-57
2022/07/01 07:48:11;;;;;;;21.10;13.93;;;;;;;17.73;93.92;101549.00;5053436;28;20114;-56
2022/07/01 07:50:40;;;;;;;20.50;14.90;;;;;;;17.95;93.26;101563.19;5053642;28;20444;-46
2022/07/01 07:53:09;;;;;;;21.35;14.45;;;;;;;18.02;91.26;101570.50;5053414;28;20550;-58
2022/07/01 07:55:38;;;;;;;20.52;14.73;;;;;;;18.03;93.97;101552.72;5053206;28;20063;-47
2022/07/01 07:58:07;;;;;;;21.02;13.30;;;;;;;17.92;90.68;101555.47;5053029;28;20048;-57
2022/07/01 08:00:35;;;;;;;19.23;14.05;;;;;;;17.97;91.22;101555.91;5050378;28;20045;-48
2022/07/01 08:03:07;;;;;;;21.70;13.57;;;;;;;18.07;90.47;101554.97;5050485;28;20053;-57
2022/07/01 08:05:36;;;;;;;17.55;12.48;;;;;;;18.05;89.71;101559.63;5052571;28;20033;-49
2022/07/01 08:08:05;;;;;;;20.77;14.18;;;;;;;18.29;90.97;101558.47;5053282;28;20053;-47
2022/07/01 08:10:33;;;;;;;18.75;13.25;;;;;;;18.39;92.75;101567.34;5053313;28;20075;-48
2022/07/01 08:13:04;;;;;;;19.38;13.02;;;;;;;18.69;91.25;101565.63;5053112;28;20060;-57
2022/07/01 08:15:34;;;;;;;16.23;11.32;;;;;;;18.92;86.67;101573.41;5053164;28;20041;-57
2022/07/01 08:18:02;;;;;;;15.90;10.82;;;;;;;18.88;87.57;101570.19;5053189;28;20075;-57
2022/07/01 08:20:30;;;;;;;16.77;11.10;;;;;;;19.15;85.05;101582.00;5052983;28;20098;-58
2022/07/01 08:22:59;;;;;;;15.85;10.40;;;;;;;19.49;85.53;101581.63;5052911;28;20048;-58
2022/07/01 08:25:27;;;;;;;13.07;8.75;;;;;;;19.55;80.86;101578.41;5052723;28;20399;-57
2022/07/01 08:28:02;;;;;;;17.73;9.50;;;;;;;19.89;81.46;101577.09;5053033;28;20045;-48
2022/07/01 08:30:31;;;;;;;14.43;9.15;;;;;;;20.08;79.95;101582.41;5052998;28;20123;-49
2022/07/01 08:33:01;;;;;;;12.82;7.50;;;;;;;19.89;76.79;101582.44;5052658;28;20076;-56
2022/07/01 08:35:29;;;;;;;13.40;8.18;;;;;;;20.26;77.50;101584.34;5049691;28;20067;-50
2022/07/01 08:37:58;;;;;;;13.38;7.95;;;;;;;20.22;74.98;101585.59;5049815;28;20397;-58
2022/07/01 08:40:27;;;;;;;11.38;6.90;;;;;;;20.12;72.04;101596.31;5050917;28;20049;-50
2022/07/01 08:42:57;;;;;;;10.93;6.25;;;;;;;20.31;73.13;101598.06;5048322;28;20057;-58
2022/07/01 08:45:26;;;;;;;9.68;6.05;;;;;;;20.25;75.68;101598.69;5050160;28;20044;-49
2022/07/01 08:47:57;;;;;;;10.10;5.95;;;;;;;20.65;75.81;101610.88;5052539;28;20053;-58
2022/07/01 08:50:27;;;;;;;9.57;5.57;;;;;;;21.05;76.65;101608.88;5052319;28;20052;-50
2022/07/01 08:52:55;;;;;;;12.45;6.22;;;;;;;21.34;72.81;101616.72;5068202;28;20060;-58
2022/07/01 08:55:23;;;;;;;9.75;4.43;;;;;;;21.55;72.44;101603.03;5052690;28;20049;-57
2022/07/01 08:57:52;;;;;;;10.45;4.10;;;;;;;21.45;68.93;101607.63;5050289;28;20098;-58
2022/07/01 09:00:20;;;;;;;9.93;3.92;;;;;;;21.38;68.55;101611.91;5048839;28;20053;-50
2022/07/01 09:02:53;;;;;;;9.38;3.88;;;;;;;21.58;66.87;101612.59;5051875;28;20060;-56
2022/07/01 09:05:22;;;;;;;8.45;3.88;;;;;;;21.81;67.90;101606.78;5052415;28;20368;-57
2022/07/01 09:07:57;;;;;;;9.82;4.05;;;;;;;22.14;68.01;101613.19;5050939;28;20053;-56
2022/07/01 09:10:26;;;;;;;10.07;3.67;;;;;;;21.95;63.49;101614.22;5052298;28;20053;-52
2022/07/01 09:12:54;;;;;;;6.18;2.60;;;;;;;22.38;63.49;101604.50;5052336;28;20099;-51
2022/07/01 09:15:25;;;;;;;7.28;2.80;;;;;;;22.22;59.38;101615.09;5052065;28;20060;-50
2022/07/01 09:17:55;;;;;;;8.18;2.42;;;;;;;21.78;60.38;101618.63;5048660;28;20053;-56
2022/07/01 09:20:29;;;;;;;6.75;2.30;;;;;;;21.78;61.95;101621.31;5049177;28;20093;-50
2022/07/01 09:23:00;;;;;;;4.88;1.73;;;;;;;21.80;59.18;101613.13;5052057;28;20049;-50
2022/07/01 09:25:30;;;;;;;5.15;1.92;;;;;;;21.82;60.78;101608.47;5052064;28;20044;-46
2022/07/01 09:28:09;;;;;;;6.88;2.00;;;;;;;21.94;62.89;101610.72;5052005;28;20419;-56
2022/07/01 09:30:38;;;;;;;6.38;2.00;;;;;;;22.19;58.03;101616.22;5051175;28;20064;-50
2022/07/01 09:33:11;;;;;;;5.97;1.60;;;;;;;22.15;59.69;101614.88;5048340;28;20464;-49
2022/07/01 09:35:40;;;;;;;6.43;2.10;;;;;;;22.16;58.04;101618.41;5050518;28;20404;-49
2022/07/01 09:38:13;;;;;;;6.65;1.77;;;;;;;21.97;57.03;101622.97;5051854;28;20048;-55
2022/07/01 09:41:02;;;;;;;4.88;1.65;;;;;;;21.68;57.30;101618.72;5051798;28;20107;-47
2022/07/01 09:43:33;;;;;;;6.05;1.77;;;;;;;21.68;57.33;101620.53;5052321;28;20060;-49
2022/07/01 09:46:03;;;;;;;5.75;2.20;;;;;;;21.67;58.33;101618.88;5051675;28;20068;-56
2022/07/01 09:48:44;;;;;;;4.97;1.83;;;;;;;21.47;62.46;101631.53;5051681;28;20068;-51
2022/07/01 09:51:15;;;;;;;6.70;2.03;;;;;;;21.51;62.04;101627.56;5051650;28;20060;-55
2022/07/01 09:53:45;;;;;;;6.28;2.30;;;;;;;21.15;60.36;101641.75;5050724;28;20504;-57
2022/07/01 09:56:13;;;;;;;5.95;2.20;;;;;;;21.19;62.00;101636.97;5044698;28;20049;-48
2022/07/01 09:58:42;;;;;;;10.02;2.13;;;;;;;21.25;61.83;101645.19;5050576;28;20041;-58
2022/07/01 10:01:12;;;;;;;9.55;2.20;;;;;;;21.21;61.42;101638.47;5051439;28;20049;-47
2022/07/01 10:03:41;;;;;;;6.95;2.10;;;;;;;21.40;60.20;101637.47;5051360;28;20076;-48
2022/07/01 10:06:25;;;;;;;5.88;1.70;;;;;;;21.31;60.77;101643.78;5047476;28;20485;-58
2022/07/01 10:09:10;;;;;;;5.35;1.48;;;;;;;21.63;58.14;101653.13;5050481;28;20123;-50
2022/07/01 10:11:57;;;;;;;6.43;1.85;;;;;;;21.69;57.14;101647.19;5051527;28;20514;-56
2022/07/01 10:14:26;;;;;;;4.10;1.73;;;;;;;21.70;59.16;101648.00;5051388;28;20059;-49
2022/07/01 10:16:54;;;;;;;5.78;1.60;;;;;;;21.74;61.41;101652.06;5051571;28;20041;-56
2022/07/01 10:19:27;;;;;;;4.53;1.20;;;;;;;21.94;58.30;101650.88;5051581;28;20099;-48
2022/07/01 10:21:58;;;;;;;6.63;1.50;;;;;;;21.97;56.40;101657.75;5047106;28;20733;-55
2022/07/01 10:24:28;;;;;;;4.00;1.50;;;;;;;22.03;55.36;101654.47;5047905;28;20118;-55
2022/07/01 10:27:01;;;;;;;6.25;1.70;;;;;;;21.85;55.88;101648.31;5051597;28;20500;-50
2022/07/01 10:29:31;;;;;;;4.70;1.55;;;;;;;22.15;56.69;101651.53;5052148;28;20051;-56
2022/07/01 10:32:07;;;;;;;5.07;1.58;;;;;;;22.06;58.43;101656.84;5051661;28;20045;-57
2022/07/01 10:34:38;;;;;;;6.28;1.40;;;;;;;22.26;55.20;101653.94;5054442;28;20041;-48
2022/07/01 10:37:08;;;;;;;3.10;1.50;;;;;;;22.40;54.61;101655.22;5055139;28;20075;-56
2022/07/01 10:39:58;;;;;;;4.63;1.52;;;;;;;22.53;55.72;101660.19;5055106;28;20049;-55
2022/07/01 10:42:31;;;;;;;4.53;1.45;;;;;;;22.56;55.19;101660.69;5055107;28;20060;-54
2022/07/01 10:45:08;;;;;;;4.03;1.45;;;;;;;22.69;55.42;101654.91;5055422;28;20067;-49
2022/07/01 10:47:37;;;;;;;2.15;1.08;;;;;;;22.81;54.43;101651.94;5053913;28;20053;-57
2022/07/01 10:50:07;;;;;;;4.90;1.30;;;;;;;22.98;52.19;101642.94;5051601;28;20702;-50
2022/07/01 10:52:36;;;;;;;4.40;1.13;;;;;;;22.98;51.81;101637.59;5053102;28;20412;-55
2022/07/01 10:55:08;;;;;;;4.43;1.20;;;;;;;22.90;53.89;101648.28;5054627;28;20106;-57
2022/07/01 10:57:40;;;;;;;5.32;1.35;;;;;;;22.69;51.67;101646.03;5051560;28;20041;-54
2022/07/01 11:00:31;;;;;;;4.63;1.30;;;;;;;22.88;54.60;101647.63;5051209;28;20052;-57
2022/07/01 11:03:14;;;;;;;4.13;1.58;;;;;;;22.89;52.17;101639.41;5054913;28;20459;-51
2022/07/01 11:05:44;;;;;;;5.43;1.35;;;;;;;22.96;53.03;101642.28;5054561;28;20171;-49
2022/07/01 11:08:12;;;;;;;3.83;1.05;;;;;;;22.98;52.66;101658.22;5054169;28;20060;-48
2022/07/01 11:10:55;;;;;;;3.20;1.10;;;;;;;22.79;53.74;101654.78;5054452;28;20075;-49
2022/07/01 11:13:23;;;;;;;4.38;1.30;;;;;;;23.13;52.57;101659.28;5054205;28;20041;-57
2022/07/01 11:15:52;;;;;;;5.20;1.00;;;;;;;23.28;50.10;101659.50;5052089;28;20059;-56
2022/07/01 11:18:20;;;;;;;3.30;1.20;;;;;;;23.31;49.38;101653.78;5050490;28;20392;-50
2022/07/01 11:20:49;;;;;;;5.22;1.08;;;;;;;23.27;50.41;101652.44;5054017;28;20086;-49
2022/07/01 11:23:20;;;;;;;3.80;1.42;;;;;;;22.94;49.07;101660.38;5053882;28;20107;-54
2022/07/01 11:25:48;;;;;;;6.30;1.60;;;;;;;23.07;51.19;101660.75;5054337;28;20056;-55
2022/07/01 11:28:17;;;;;;;6.30;1.52;;;;;;;22.74;54.10;101663.31;5053869;28;20080;-48
2022/07/01 11:30:45;;;;;;;4.03;1.35;;;;;;;22.30;49.89;101655.31;5053587;28;20111;-49
2022/07/01 11:33:13;;;;;;;2.80;1.08;;;;;;;22.86;51.50;101649.59;5052758;28;20075;-53
2022/07/01 11:41:27;;;;;;;4.03;1.23;;;;;;;24.27;48.89;101635.38;5030310;28;20468;-50
2022/07/01 11:43:56;;;;;;;3.97;1.02;;;;;;;24.98;49.71;101638.16;5048696;28;20069;-55